createdAt,value
2018-08-24T00:00:20.986Z,97414.59
2018-08-24T00:01:25.916Z,97414.24
2018-08-24T00:02:29.527Z,97411.52
2018-08-24T00:03:32.439Z,97409.96
2018-08-24T00:04:35.317Z,97417.39
2018-08-24T00:05:38.236Z,97417.34
2018-08-24T00:06:44.995Z,97417.42
2018-08-24T00:07:48.406Z,97416.44
2018-08-24T00:08:51.408Z,97414.86
2018-08-24T00:09:54.315Z,97418.59
2018-08-24T00:10:57.249Z,97418.88
2018-08-24T00:12:00.121Z,97416.40
2018-08-24T00:13:03.014Z,97423.08
2018-08-24T00:14:06.438Z,97414.27
2018-08-24T00:15:09.751Z,97415.63
2018-08-24T00:16:19.424Z,97413.17
2018-08-24T00:17:30.826Z,97412.23
2018-08-24T00:18:34.201Z,97415.42
2018-08-24T00:19:38.860Z,97413.20
2018-08-24T00:20:45.065Z,97411.48
2018-08-24T00:21:49.677Z,97411.27
2018-08-24T00:22:54.803Z,97418.17
2018-08-24T00:23:58.634Z,97408.95
2018-08-24T00:25:09.057Z,97414.11
2018-08-24T00:26:12.914Z,97412.33
2018-08-24T00:27:17.180Z,97409.58
2018-08-24T00:28:21.550Z,97413.07
2018-08-24T00:29:24.463Z,97404.39
2018-08-24T00:30:29.446Z,97405.59
2018-08-24T00:31:36.737Z,97405.80
2018-08-24T00:32:40.225Z,97408.95
2018-08-24T00:33:48.542Z,97410.53
2018-08-24T00:34:51.394Z,97410.34
2018-08-24T00:35:54.296Z,97414.53
2018-08-24T00:36:57.302Z,97398.53
2018-08-24T00:38:01.192Z,97400.51
2018-08-24T00:39:05.812Z,97403.70
2018-08-24T00:40:09.284Z,97403.70
2018-08-24T00:41:17.718Z,97399.76
2018-08-24T00:42:20.923Z,97394.98
2018-08-24T00:43:25.026Z,97397.75
2018-08-24T00:44:29.859Z,97387.27
2018-08-24T00:45:33.321Z,97387.90
2018-08-24T00:46:36.656Z,97386.65
2018-08-24T00:47:39.585Z,97385.13
2018-08-24T00:48:42.443Z,97381.20
2018-08-24T00:49:45.291Z,97380.23
2018-08-24T00:50:48.147Z,97379.81
2018-08-24T00:51:51.265Z,97382.59
2018-08-24T00:52:54.504Z,97384.92
2018-08-24T00:53:58.341Z,97383.53
2018-08-24T00:55:01.221Z,97378.03
2018-08-24T00:56:04.055Z,97387.31
2018-08-24T00:57:07.001Z,97388.11
2018-08-24T00:58:09.834Z,97379.36
2018-08-24T00:59:14.605Z,97385.05
2018-08-24T01:00:17.492Z,97378.84
2018-08-24T01:01:21.464Z,97375.25
2018-08-24T01:02:24.339Z,97389.26
2018-08-24T01:03:27.884Z,97388.72
2018-08-24T01:04:35.709Z,97388.92
2018-08-24T01:05:39.020Z,97389.34
2018-08-24T01:06:41.920Z,97386.78
2018-08-24T01:07:49.541Z,97389.89
2018-08-24T01:08:52.417Z,97392.88
2018-08-24T01:09:55.423Z,97393.08
2018-08-24T01:10:58.288Z,97389.90
2018-08-24T01:12:06.447Z,97387.35
2018-08-24T01:13:16.548Z,97387.56
2018-08-24T01:14:19.693Z,97384.39
2018-08-24T01:15:22.539Z,97382.55
2018-08-24T01:16:30.769Z,97384.22
2018-08-24T01:17:39.498Z,97378.86
2018-08-24T01:18:47.602Z,97379.38
2018-08-24T01:19:50.518Z,97380.33
2018-08-24T01:20:54.467Z,97378.32
2018-08-24T01:21:57.353Z,97377.47
2018-08-24T01:23:00.235Z,97372.70
2018-08-24T01:24:03.638Z,97377.44
2018-08-24T01:25:06.502Z,97371.75
2018-08-24T01:26:09.630Z,97368.41
2018-08-24T01:27:13.649Z,97382.84
2018-08-24T01:28:19.922Z,97377.15
2018-08-24T01:29:22.995Z,97375.56
2018-08-24T01:30:26.295Z,97375.20
2018-08-24T01:31:29.733Z,97384.27
2018-08-24T01:32:34.181Z,97381.13
2018-08-24T01:33:37.518Z,97378.95
2018-08-24T01:34:40.418Z,97387.43
2018-08-24T01:35:43.329Z,97378.95
2018-08-24T01:36:46.637Z,97389.38
2018-08-24T01:37:49.555Z,97383.06
2018-08-24T01:38:52.461Z,97381.50
2018-08-24T01:39:55.337Z,97377.16
2018-08-24T01:40:58.225Z,97377.54
2018-08-24T01:42:01.157Z,97379.55
2018-08-24T01:43:04.483Z,97368.52
2018-08-24T01:44:07.365Z,97382.52
2018-08-24T01:45:10.243Z,97371.84
2018-08-24T01:46:14.457Z,97365.35
2018-08-24T01:47:17.330Z,97371.64
2018-08-24T01:48:20.182Z,97365.75
2018-08-24T01:49:23.576Z,97370.10
2018-08-24T01:50:26.449Z,97367.70
2018-08-24T01:51:29.351Z,97365.09
2018-08-24T01:52:32.211Z,97356.81
2018-08-24T01:53:35.084Z,97370.44
2018-08-24T01:54:37.964Z,97371.27
2018-08-24T01:55:41.236Z,97366.77
2018-08-24T01:56:44.180Z,97374.64
2018-08-24T01:57:47.054Z,97368.52
2018-08-24T01:58:49.922Z,97371.68
2018-08-24T01:59:52.829Z,97369.52
2018-08-24T02:00:55.737Z,97366.97
2018-08-24T02:01:59.859Z,97370.33
2018-08-24T02:03:02.740Z,97362.23
2018-08-24T02:04:08.011Z,97363.23
2018-08-24T02:05:10.946Z,97364.41
2018-08-24T02:06:14.770Z,97366.96
2018-08-24T02:07:17.657Z,97365.79
2018-08-24T02:08:21.023Z,97365.19
2018-08-24T02:09:25.051Z,97356.91
2018-08-24T02:10:28.892Z,97356.91
2018-08-24T02:11:34.640Z,97352.20
2018-08-24T02:12:42.457Z,97361.05
2018-08-24T02:13:50.106Z,97374.84
2018-08-24T02:14:53.807Z,97369.13
2018-08-24T02:15:56.676Z,97362.23
2018-08-24T02:16:59.569Z,97359.06
2018-08-24T02:18:07.345Z,97369.13
2018-08-24T02:19:12.571Z,97366.77
2018-08-24T02:20:20.245Z,97367.17
2018-08-24T02:21:28.310Z,97367.95
2018-08-24T02:22:31.236Z,97361.85
2018-08-24T02:23:34.131Z,97369.32
2018-08-24T02:24:37.046Z,97372.08
2018-08-24T02:25:39.991Z,97364.37
2018-08-24T02:26:43.606Z,97358.04
2018-08-24T02:27:46.917Z,97365.36
2018-08-24T02:28:49.826Z,97367.91
2018-08-24T02:29:57.065Z,97370.87
2018-08-24T02:31:02.116Z,97361.02
2018-08-24T02:32:05.005Z,97367.27
2018-08-24T02:33:07.893Z,97368.07
2018-08-24T02:34:11.233Z,97375.62
2018-08-24T02:35:14.263Z,97364.61
2018-08-24T02:36:17.169Z,97366.94
2018-08-24T02:37:20.097Z,97372.25
2018-08-24T02:38:23.009Z,97358.25
2018-08-24T02:39:25.933Z,97370.30
2018-08-24T02:40:29.255Z,97376.82
2018-08-24T02:41:32.123Z,97355.94
2018-08-24T02:42:34.996Z,97371.91
2018-08-24T02:43:37.922Z,97361.62
2018-08-24T02:44:40.868Z,97366.39
2018-08-24T02:45:43.745Z,97366.77
2018-08-24T02:46:47.070Z,97354.55
2018-08-24T02:47:49.997Z,97363.44
2018-08-24T02:48:54.669Z,97363.45
2018-08-24T02:49:57.621Z,97362.22
2018-08-24T02:51:00.579Z,97365.01
2018-08-24T02:52:03.493Z,97354.55
2018-08-24T02:53:06.757Z,97368.30
2018-08-24T02:54:09.668Z,97361.67
2018-08-24T02:55:12.586Z,97359.09
2018-08-24T02:56:15.483Z,97366.77
2018-08-24T02:57:18.394Z,97359.48
2018-08-24T02:58:21.376Z,97356.53
2018-08-24T02:59:24.623Z,97348.84
2018-08-24T03:00:27.490Z,97362.06
2018-08-24T03:01:30.374Z,97359.49
2018-08-24T03:02:33.229Z,97347.28
2018-08-24T03:03:36.090Z,97354.38
2018-08-24T03:04:38.946Z,97358.71
2018-08-24T03:05:42.317Z,97357.53
2018-08-24T03:06:45.209Z,97355.95
2018-08-24T03:07:48.096Z,97337.83
2018-08-24T03:08:50.970Z,97352.81
2018-08-24T03:09:53.912Z,97346.11
2018-08-24T03:10:56.777Z,97359.11
2018-08-24T03:12:00.134Z,97352.80
2018-08-24T03:13:03.041Z,97357.72
2018-08-24T03:14:05.925Z,97357.51
2018-08-24T03:15:08.825Z,97353.38
2018-08-24T03:16:11.803Z,97362.03
2018-08-24T03:17:20.071Z,97370.06
2018-08-24T03:18:22.971Z,97368.88
2018-08-24T03:19:25.862Z,97369.39
2018-08-24T03:20:28.792Z,97367.98
2018-08-24T03:21:31.713Z,97375.44
2018-08-24T03:22:34.579Z,97372.23
2018-08-24T03:23:37.870Z,97374.50
2018-08-24T03:24:41.571Z,97377.67
2018-08-24T03:25:44.453Z,97376.17
2018-08-24T03:26:47.363Z,97374.94
2018-08-24T03:27:50.263Z,97379.54
2018-08-24T03:28:53.147Z,97381.55
2018-08-24T03:29:56.599Z,97376.34
2018-08-24T03:30:59.477Z,97371.03
2018-08-24T03:32:02.374Z,97382.06
2018-08-24T03:33:05.258Z,97379.09
2018-08-24T03:34:08.122Z,97377.06
2018-08-24T03:35:10.977Z,97376.69
2018-08-24T03:36:14.202Z,97378.84
2018-08-24T03:37:17.098Z,97379.47
2018-08-24T03:38:19.973Z,97365.95
2018-08-24T03:40:20.518Z,97366.21
2018-08-24T03:41:23.498Z,97358.58
2018-08-24T03:42:26.641Z,97345.48
2018-08-24T03:43:29.503Z,97384.84
2018-08-24T03:44:32.421Z,97381.03
2018-08-24T03:45:35.331Z,97382.30
2018-08-24T03:46:38.191Z,97372.20
2018-08-24T03:47:41.085Z,97383.83
2018-08-24T03:48:44.388Z,97384.84
2018-08-24T03:49:47.314Z,97381.49
2018-08-24T03:50:50.169Z,97392.10
2018-08-24T03:51:53.077Z,97392.09
2018-08-24T03:52:55.949Z,97397.39
2018-08-24T03:53:58.859Z,97397.88
2018-08-24T03:55:01.730Z,97395.51
2018-08-24T03:56:05.308Z,97394.07
2018-08-24T03:57:08.192Z,97391.48
2018-08-24T03:58:11.897Z,97385.62
2018-08-24T03:59:14.783Z,97383.88
2018-08-24T04:00:18.735Z,97389.39
2018-08-24T04:01:22.513Z,97395.87
2018-08-24T04:02:25.398Z,97382.20
2018-08-24T04:03:28.910Z,97371.60
2018-08-24T04:04:31.802Z,97382.44
2018-08-24T04:05:34.715Z,97387.10
2018-08-24T04:06:37.935Z,97389.29
2018-08-24T04:07:41.305Z,97388.62
2018-08-24T04:08:44.185Z,97364.34
2018-08-24T04:09:47.033Z,97382.80
2018-08-24T04:10:49.938Z,97387.23
2018-08-24T04:11:52.827Z,97380.69
2018-08-24T04:12:56.643Z,97383.54
2018-08-24T04:13:59.552Z,97378.75
2018-08-24T04:15:02.423Z,97392.73
2018-08-24T04:16:05.306Z,97388.12
2018-08-24T04:17:12.965Z,97379.67
2018-08-24T04:18:16.295Z,97386.36
2018-08-24T04:19:23.671Z,97398.02
2018-08-24T04:20:27.532Z,97392.31
2018-08-24T04:21:30.457Z,97390.89
2018-08-24T04:22:33.365Z,97394.55
2018-08-24T04:23:36.270Z,97391.16
2018-08-24T04:24:39.511Z,97388.23
2018-08-24T04:25:42.440Z,97391.72
2018-08-24T04:26:45.334Z,97397.80
2018-08-24T04:27:48.234Z,97393.22
2018-08-24T04:28:51.125Z,97396.95
2018-08-24T04:29:54.016Z,97395.58
2018-08-24T04:30:57.308Z,97398.31
2018-08-24T04:32:00.225Z,97392.57
2018-08-24T04:33:03.101Z,97400.93
2018-08-24T04:34:06.427Z,97406.09
2018-08-24T04:35:09.326Z,97410.16
2018-08-24T04:36:12.254Z,97408.17
2018-08-24T04:37:15.575Z,97399.02
2018-08-24T04:38:18.474Z,97402.17
2018-08-24T04:39:21.542Z,97408.70
2018-08-24T04:40:25.135Z,97399.78
2018-08-24T04:41:28.126Z,97400.25
2018-08-24T04:42:31.538Z,97402.79
2018-08-24T04:43:34.883Z,97402.96
2018-08-24T04:44:37.777Z,97403.94
2018-08-24T04:45:43.386Z,97414.38
2018-08-24T04:46:46.247Z,97414.28
2018-08-24T04:47:52.763Z,97415.14
2018-08-24T04:48:55.698Z,97412.48
2018-08-24T04:49:59.247Z,97411.11
2018-08-24T04:51:02.202Z,97416.35
2018-08-24T04:52:05.078Z,97410.20
2018-08-24T04:53:09.450Z,97420.80
2018-08-24T04:54:12.425Z,97419.30
2018-08-24T04:55:15.393Z,97411.76
2018-08-24T04:56:18.668Z,97422.66
2018-08-24T04:57:21.622Z,97424.59
2018-08-24T04:58:24.650Z,97427.25
2018-08-24T04:59:27.626Z,97425.67
2018-08-24T05:00:30.546Z,97431.21
2018-08-24T05:01:33.579Z,97423.88
2018-08-24T05:02:36.894Z,97430.66
2018-08-24T05:03:40.032Z,97426.46
2018-08-24T05:04:42.914Z,97428.96
2018-08-24T05:05:45.981Z,97434.33
2018-08-24T05:06:48.818Z,97426.31
2018-08-24T05:07:52.156Z,97422.09
2018-08-24T05:08:57.765Z,97426.42
2018-08-24T05:10:01.416Z,97427.02
2018-08-24T05:11:04.903Z,97432.81
2018-08-24T05:12:07.837Z,97441.36
2018-08-24T05:13:10.903Z,97427.03
2018-08-24T05:14:14.011Z,97431.50
2018-08-24T05:15:17.241Z,97436.94
2018-08-24T05:16:20.237Z,97434.11
2018-08-24T05:17:23.102Z,97434.89
2018-08-24T05:18:26.985Z,97437.35
2018-08-24T05:19:30.684Z,97456.03
2018-08-24T05:20:34.281Z,97437.45
2018-08-24T05:21:37.737Z,97439.34
2018-08-24T05:22:40.893Z,97454.77
2018-08-24T05:23:43.787Z,97459.36
2018-08-24T05:24:46.827Z,97474.52
2018-08-24T05:25:50.348Z,97451.70
2018-08-24T05:26:53.823Z,97462.79
2018-08-24T05:27:56.766Z,97469.95
2018-08-24T05:28:59.685Z,97458.45
2018-08-24T05:30:02.558Z,97472.84
2018-08-24T05:33:18.420Z,97460.81
2018-08-24T05:34:21.665Z,97450.86
2018-08-24T05:35:24.735Z,97463.47
2018-08-24T05:36:27.688Z,97448.06
2018-08-24T05:37:30.602Z,97458.78
2018-08-24T05:38:33.895Z,97466.09
2018-08-24T05:39:37.411Z,97462.75
2018-08-24T05:40:40.602Z,97457.93
2018-08-24T05:41:43.690Z,97451.28
2018-08-24T05:42:46.598Z,97452.61
2018-08-24T05:43:49.482Z,97462.05
2018-08-24T05:44:52.692Z,97457.75
2018-08-24T05:45:55.603Z,97461.05
2018-08-24T05:46:58.545Z,97469.05
2018-08-24T05:48:02.099Z,97461.55
2018-08-24T05:49:05.676Z,97460.45
2018-08-24T05:50:08.576Z,97461.76
2018-08-24T05:51:11.841Z,97456.09
2018-08-24T05:52:14.761Z,97467.16
2018-08-24T05:53:17.805Z,97460.51
2018-08-24T05:54:20.713Z,97465.79
2018-08-24T05:55:24.629Z,97472.88
2018-08-24T05:56:27.541Z,97483.95
2018-08-24T05:57:31.009Z,97477.84
2018-08-24T05:58:34.633Z,97478.83
2018-08-24T05:59:37.561Z,97476.19
2018-08-24T06:00:42.966Z,97481.09
2018-08-24T06:01:45.902Z,97484.20
2018-08-24T06:02:48.807Z,97485.36
2018-08-24T06:03:52.072Z,97498.24
2018-08-24T06:04:54.942Z,97492.30
2018-08-24T06:06:01.798Z,97491.31
2018-08-24T06:07:04.925Z,97490.41
2018-08-24T06:08:08.065Z,97497.16
2018-08-24T06:09:13.913Z,97504.17
2018-08-24T06:10:17.483Z,97497.39
2018-08-24T06:11:20.586Z,97496.61
2018-08-24T06:12:23.533Z,97503.17
2018-08-24T06:13:27.309Z,97504.48
2018-08-24T06:14:30.514Z,97505.52
2018-08-24T06:15:33.830Z,97503.34
2018-08-24T06:16:40.409Z,97505.25
2018-08-24T06:17:48.146Z,97508.14
2018-08-24T06:18:51.082Z,97505.09
2018-08-24T06:19:53.968Z,97503.88
2018-08-24T06:20:57.076Z,97499.48
2018-08-24T06:21:59.985Z,97498.51
2018-08-24T06:23:03.353Z,97493.59
2018-08-24T06:24:06.322Z,97496.19
2018-08-24T06:25:09.862Z,97500.89
2018-08-24T06:26:12.752Z,97490.39
2018-08-24T06:27:15.819Z,97489.88
2018-08-24T06:28:18.848Z,97482.67
2018-08-24T06:29:22.314Z,97468.30
2018-08-24T06:30:25.433Z,97471.60
2018-08-24T06:31:29.430Z,97465.40
2018-08-24T06:32:32.384Z,97484.62
2018-08-24T06:33:35.357Z,97478.89
2018-08-24T06:34:38.274Z,97474.30
2018-08-24T06:35:42.389Z,97472.44
2018-08-24T06:36:45.278Z,97468.31
2018-08-24T06:37:48.187Z,97472.91
2018-08-24T06:38:51.111Z,97477.41
2018-08-24T06:39:54.035Z,97477.22
2018-08-24T06:40:58.616Z,97483.55
2018-08-24T06:42:02.041Z,97487.70
2018-08-24T06:43:06.582Z,97490.84
2018-08-24T06:44:09.504Z,97511.85
2018-08-24T06:45:12.502Z,97508.27
2018-08-24T06:46:15.477Z,97508.55
2018-08-24T06:47:19.190Z,97508.84
2018-08-24T06:48:22.544Z,97506.29
2018-08-24T06:49:25.419Z,97502.57
2018-08-24T06:50:28.360Z,97509.30
2018-08-24T06:51:31.649Z,97505.75
2018-08-24T06:52:34.681Z,97499.66
2018-08-24T06:53:37.939Z,97493.34
2018-08-24T06:54:41.168Z,97487.25
2018-08-24T06:55:44.073Z,97485.66
2018-08-24T06:56:47.249Z,97481.95
2018-08-24T06:57:50.198Z,97482.50
2018-08-24T06:58:56.651Z,97491.38
2018-08-24T07:00:00.099Z,97493.56
2018-08-24T07:01:03.673Z,97501.64
2018-08-24T07:02:10.353Z,97489.23
2018-08-24T07:03:13.258Z,97478.91
2018-08-24T07:04:16.272Z,97476.92
2018-08-24T07:05:19.251Z,97482.81
2018-08-24T07:06:28.661Z,97499.55
2018-08-24T07:07:32.609Z,97504.88
2018-08-24T07:08:38.916Z,97510.69
2018-08-24T07:09:42.420Z,97491.43
2018-08-24T07:10:45.383Z,97488.12
2018-08-24T07:11:50.028Z,97484.24
2018-08-24T07:12:53.816Z,97504.94
2018-08-24T07:13:56.971Z,97502.50
2018-08-24T07:15:01.294Z,97493.91
2018-08-24T07:16:04.219Z,97494.63
2018-08-24T07:17:07.319Z,97501.94
2018-08-24T07:18:11.222Z,97501.27
2018-08-24T07:19:14.563Z,97499.56
2018-08-24T07:20:17.567Z,97504.59
2018-08-24T07:21:20.551Z,97508.61
2018-08-24T07:22:23.512Z,97501.30
2018-08-24T07:23:26.459Z,97498.57
2018-08-24T07:24:29.358Z,97484.25
2018-08-24T07:25:32.621Z,97499.48
2018-08-24T07:26:35.566Z,97501.92
2018-08-24T07:27:38.548Z,97506.20
2018-08-24T07:28:41.811Z,97495.99
2018-08-24T07:29:44.727Z,97504.30
2018-08-24T07:30:47.717Z,97503.36
2018-08-24T07:31:51.484Z,97508.50
2018-08-24T07:32:54.965Z,97494.48
2018-08-24T07:33:59.591Z,97511.75
2018-08-24T07:35:03.113Z,97508.52
2018-08-24T07:36:06.061Z,97512.98
2018-08-24T07:37:08.995Z,97512.08
2018-08-24T07:38:12.388Z,97512.82
2018-08-24T07:39:16.092Z,97506.52
2018-08-24T07:40:19.224Z,97528.81
2018-08-24T07:41:23.319Z,97521.13
2018-08-24T07:42:26.434Z,97512.83
2018-08-24T07:43:30.343Z,97527.77
2018-08-24T07:44:39.131Z,97527.44
2018-08-24T07:45:42.278Z,97527.77
2018-08-24T07:46:49.559Z,97528.55
2018-08-24T07:49:02.114Z,97520.95
2018-08-24T07:50:06.670Z,97520.42
2018-08-24T07:51:10.341Z,97537.55
2018-08-24T07:52:13.212Z,97530.34
2018-08-24T07:53:17.333Z,97532.77
2018-08-24T07:54:20.378Z,97531.98
2018-08-24T07:55:24.484Z,97536.11
2018-08-24T07:56:29.804Z,97539.92
2018-08-24T07:57:34.004Z,97535.60
2018-08-24T07:58:37.664Z,97540.22
2018-08-24T07:59:40.582Z,97539.17
2018-08-24T08:00:43.596Z,97541.64
2018-08-24T08:01:46.536Z,97545.31
2018-08-24T08:02:51.462Z,97549.08
2018-08-24T08:03:54.889Z,97554.45
2018-08-24T08:04:58.962Z,97544.44
2018-08-24T08:06:03.765Z,97549.45
2018-08-24T08:07:07.480Z,97537.97
2018-08-24T08:08:10.455Z,97545.27
2018-08-24T08:09:13.369Z,97538.22
2018-08-24T08:10:18.554Z,97540.20
2018-08-24T08:11:22.396Z,97545.94
2018-08-24T08:12:25.335Z,97545.89
2018-08-24T08:13:34.675Z,97539.85
2018-08-24T08:14:40.376Z,97541.09
2018-08-24T08:15:44.405Z,97538.77
2018-08-24T08:16:47.834Z,97543.62
2018-08-24T08:17:51.906Z,97544.78
2018-08-24T08:18:55.505Z,97546.77
2018-08-24T08:20:01.340Z,97543.08
2018-08-24T08:21:04.339Z,97541.69
2018-08-24T08:22:07.796Z,97540.60
2018-08-24T08:23:13.099Z,97539.87
2018-08-24T08:24:17.267Z,97535.25
2018-08-24T08:25:20.199Z,97540.61
2018-08-24T08:26:25.835Z,97545.18
2018-08-24T08:27:29.814Z,97534.44
2018-08-24T08:28:32.735Z,97537.91
2018-08-24T08:29:40.903Z,97541.92
2018-08-24T08:30:44.191Z,97530.92
2018-08-24T08:31:47.352Z,97530.61
2018-08-24T08:32:51.138Z,97523.76
2018-08-24T08:33:54.171Z,97528.66
2018-08-24T08:34:57.113Z,97532.06
2018-08-24T08:36:00.556Z,97528.60
2018-08-24T08:37:03.482Z,97531.05
2018-08-24T08:38:06.443Z,97514.67
2018-08-24T08:39:09.976Z,97530.87
2018-08-24T08:40:12.925Z,97530.94
2018-08-24T08:41:15.832Z,97537.47
2018-08-24T08:42:22.905Z,97523.93
2018-08-24T08:43:26.026Z,97528.19
2018-08-24T08:44:29.756Z,97531.81
2018-08-24T08:45:32.610Z,97533.84
2018-08-24T08:46:35.735Z,97531.00
2018-08-24T08:47:38.633Z,97533.92
2018-08-24T08:48:42.595Z,97535.63
2018-08-24T08:49:45.669Z,97536.53
2018-08-24T08:50:48.704Z,97525.16
2018-08-24T08:51:52.209Z,97520.96
2018-08-24T08:52:55.130Z,97514.33
2018-08-24T08:53:58.457Z,97544.49
2018-08-24T08:55:01.389Z,97539.97
2018-08-24T08:56:04.275Z,97533.31
2018-08-24T08:57:07.217Z,97527.63
2018-08-24T08:58:10.270Z,97528.62
2018-08-24T08:59:13.159Z,97521.32
2018-08-24T09:00:17.782Z,97521.87
2018-08-24T09:01:22.157Z,97526.41
2018-08-24T09:02:25.117Z,97532.36
2018-08-24T09:03:28.030Z,97523.91
2018-08-24T09:04:30.927Z,97531.33
2018-08-24T09:05:33.965Z,97533.23
2018-08-24T09:06:37.416Z,97543.83
2018-08-24T09:07:40.367Z,97529.73
2018-08-24T09:08:43.298Z,97535.12
2018-08-24T09:09:46.256Z,97549.25
2018-08-24T09:10:50.135Z,97543.73
2018-08-24T09:11:53.133Z,97535.32
2018-08-24T09:12:57.607Z,97544.37
2018-08-24T09:14:00.677Z,97547.73
2018-08-24T09:15:03.686Z,97553.05
2018-08-24T09:16:06.712Z,97540.72
2018-08-24T09:17:14.521Z,97542.62
2018-08-24T09:18:22.321Z,97542.21
2018-08-24T09:19:31.075Z,97556.55
2018-08-24T09:20:38.998Z,97539.51
2018-08-24T09:21:46.670Z,97554.59
2018-08-24T09:22:54.473Z,97554.47
2018-08-24T09:26:09.555Z,97556.00
2018-08-24T09:27:17.213Z,97545.84
2018-08-24T09:28:24.914Z,97555.04
2018-08-24T09:29:30.639Z,97555.50
2018-08-24T09:30:37.373Z,97557.87
2018-08-24T09:31:42.059Z,97561.34
2018-08-24T09:32:46.553Z,97555.52
2018-08-24T09:33:49.560Z,97554.27
2018-08-24T09:34:52.529Z,97561.01
2018-08-24T09:35:56.675Z,97564.14
2018-08-24T09:37:00.368Z,97556.95
2018-08-24T09:38:04.555Z,97561.52
2018-08-24T09:39:08.392Z,97534.45
2018-08-24T09:40:11.258Z,97558.77
2018-08-24T09:41:14.175Z,97561.16
2018-08-24T09:42:18.004Z,97554.39
2018-08-24T09:43:26.720Z,97553.02
2018-08-24T09:44:31.571Z,97557.07
2018-08-24T09:45:34.544Z,97559.22
2018-08-24T09:46:42.230Z,97560.98
2018-08-24T09:47:50.077Z,97562.34
2018-08-24T09:48:58.018Z,97558.98
2018-08-24T09:50:06.307Z,97560.02
2018-08-24T09:51:14.333Z,97569.33
2018-08-24T09:52:22.149Z,97566.95
2018-08-24T09:53:30.015Z,97559.71
2018-08-24T09:54:33.090Z,97554.00
2018-08-24T09:55:40.288Z,97555.98
2018-08-24T09:56:43.775Z,97560.76
2018-08-24T09:57:48.212Z,97555.78
2018-08-24T09:58:51.090Z,97544.31
2018-08-24T09:59:54.347Z,97568.39
2018-08-24T10:01:02.448Z,97552.13
2018-08-24T10:02:10.955Z,97547.23
2018-08-24T10:03:18.615Z,97552.63
2018-08-24T10:04:26.442Z,97549.03
2018-08-24T10:05:34.120Z,97546.91
2018-08-24T10:06:41.839Z,97541.01
2018-08-24T10:07:50.806Z,97545.54
2018-08-24T10:08:53.730Z,97476.72
2018-08-24T10:09:56.647Z,97539.97
2018-08-24T10:11:00.027Z,97528.72
2018-08-24T10:12:03.018Z,97527.38
2018-08-24T10:13:08.569Z,97541.77
2018-08-24T10:14:13.663Z,97545.52
2018-08-24T10:15:16.608Z,97535.58
2018-08-24T10:16:19.522Z,97550.20
2018-08-24T10:17:26.598Z,97543.33
2018-08-24T10:18:30.574Z,97548.66
2018-08-24T10:19:34.503Z,97541.38
2018-08-24T10:20:38.842Z,97552.82
2018-08-24T10:21:42.782Z,97543.60
2018-08-24T10:22:45.797Z,97542.19
2018-08-24T10:23:48.849Z,97541.38
2018-08-24T10:24:51.827Z,97528.37
2018-08-24T10:25:54.867Z,97507.84
2018-08-24T10:26:59.072Z,97542.00
2018-08-24T10:28:02.507Z,97520.09
2018-08-24T10:29:05.806Z,97532.30
2018-08-24T10:30:08.754Z,97524.69
2018-08-24T10:32:22.598Z,97536.59
2018-08-24T10:33:29.312Z,97535.42
2018-08-24T10:34:32.377Z,97532.41
2018-08-24T10:35:35.383Z,97545.13
2018-08-24T10:36:38.978Z,97533.31
2018-08-24T10:37:42.055Z,97522.24
2018-08-24T10:38:45.414Z,97536.84
2018-08-24T10:39:49.330Z,97534.21
2018-08-24T10:40:52.313Z,97527.33
2018-08-24T10:41:55.300Z,97558.05
2018-08-24T10:42:58.285Z,97537.62
2018-08-24T10:44:01.242Z,97534.30
2018-08-24T10:45:06.039Z,97512.39
2018-08-24T10:46:09.183Z,97539.44
2018-08-24T10:47:13.308Z,97527.97
2018-08-24T10:48:18.385Z,97528.19
2018-08-24T10:49:21.333Z,97538.94
2018-08-24T10:50:27.852Z,97529.33
2018-08-24T10:51:31.998Z,97525.27
2018-08-24T10:52:36.601Z,97523.84
2018-08-24T10:53:40.700Z,97538.39
2018-08-24T10:54:44.963Z,97520.48
2018-08-24T10:55:48.052Z,97516.48
2018-08-24T10:56:50.855Z,97519.41
2018-08-24T10:57:54.627Z,97518.81
2018-08-24T10:58:58.708Z,97524.31
2018-08-24T11:00:02.267Z,97519.97
2018-08-24T11:01:06.661Z,97530.05
2018-08-24T11:02:09.661Z,97527.39
2018-08-24T11:03:12.593Z,97492.98
2018-08-24T11:04:15.842Z,97492.29
2018-08-24T11:05:20.446Z,97553.93
2018-08-24T11:06:23.394Z,97553.40
2018-08-24T11:07:27.407Z,97558.53
2018-08-24T11:08:30.321Z,97571.47
2018-08-24T11:09:33.230Z,97566.07
2018-08-24T11:10:38.524Z,97571.08
2018-08-24T11:11:41.411Z,97577.45
2018-08-24T11:12:44.339Z,97584.91
2018-08-24T11:13:47.222Z,97564.33
2018-08-24T11:14:50.276Z,97585.37
2018-08-24T11:15:53.290Z,97580.34
2018-08-24T11:16:57.124Z,97584.42
2018-08-24T11:18:04.813Z,97591.55
2018-08-24T11:19:07.710Z,97587.67
2018-08-24T11:20:10.605Z,97584.75
2018-08-24T11:22:41.802Z,97590.06
2018-08-24T11:23:45.122Z,97585.42
2018-08-24T11:24:48.655Z,97590.16
2018-08-24T11:25:51.726Z,97589.88
2018-08-24T11:26:54.734Z,97592.44
2018-08-24T11:27:57.685Z,97592.50
2018-08-24T11:29:01.986Z,97586.09
2018-08-24T11:30:06.165Z,97585.41
2018-08-24T11:31:09.176Z,97586.34
2018-08-24T11:32:13.468Z,97586.91
2018-08-24T11:33:16.438Z,97577.27
2018-08-24T11:34:19.467Z,97595.45
2018-08-24T11:35:23.903Z,97580.30
2018-08-24T11:36:26.905Z,97586.70
2018-08-24T11:37:31.137Z,97594.46
2018-08-24T11:38:35.259Z,97579.17
2018-08-24T11:39:38.169Z,97577.08
2018-08-24T11:40:41.076Z,97573.97
2018-08-24T11:41:45.655Z,97557.78
2018-08-24T11:42:48.791Z,97575.09
2018-08-24T11:43:51.932Z,97573.89
2018-08-24T11:44:55.784Z,97585.61
2018-08-24T11:45:59.315Z,97564.73
2018-08-24T11:47:02.548Z,97571.98
2018-08-24T11:48:05.962Z,97576.05
2018-08-24T11:49:09.010Z,97576.50
2018-08-24T11:50:12.610Z,97574.14
2018-08-24T11:51:16.562Z,97572.77
2018-08-24T11:52:21.385Z,97576.53
2018-08-24T11:53:24.791Z,97571.38
2018-08-24T11:54:29.354Z,97579.48
2018-08-24T11:55:33.205Z,97576.63
2018-08-24T11:56:36.154Z,97576.84
2018-08-24T11:57:39.657Z,97568.93
2018-08-24T11:58:43.379Z,97570.77
2018-08-24T11:59:46.377Z,97576.28
2018-08-24T12:00:51.416Z,97572.92
2018-08-24T12:01:54.349Z,97570.76
2018-08-24T12:02:58.267Z,97582.00
2018-08-24T12:04:01.796Z,97589.88
2018-08-24T12:05:04.766Z,97592.49
2018-08-24T12:06:08.657Z,97592.31
2018-08-24T12:07:12.220Z,97586.34
2018-08-24T12:08:15.325Z,97579.83
2018-08-24T12:09:18.265Z,97576.63
2018-08-24T12:10:21.295Z,97583.72
2018-08-24T12:11:24.219Z,97584.74
2018-08-24T12:12:27.686Z,97582.61
2018-08-24T12:13:30.701Z,97564.67
2018-08-24T12:14:33.687Z,97572.95
2018-08-24T12:15:36.697Z,97587.71
2018-08-24T12:16:39.837Z,97590.30
2018-08-24T12:17:42.956Z,97584.16
2018-08-24T12:18:46.461Z,97592.64
2018-08-24T12:19:49.444Z,97588.34
2018-08-24T12:20:52.977Z,97583.20
2018-08-24T12:21:55.868Z,97585.39
2018-08-24T12:23:00.696Z,97585.41
2018-08-24T12:24:03.790Z,97572.31
2018-08-24T12:25:10.694Z,97586.13
2018-08-24T12:26:15.626Z,97577.94
2018-08-24T12:27:18.799Z,97577.11
2018-08-24T12:28:21.795Z,97582.00
2018-08-24T12:29:26.696Z,97579.81
2018-08-24T12:30:29.879Z,97585.73
2018-08-24T12:31:33.751Z,97570.03
2018-08-24T12:32:36.675Z,97584.62
2018-08-24T12:33:40.183Z,97553.98
2018-08-24T12:34:43.897Z,97549.70
2018-08-24T12:35:46.848Z,97575.34
2018-08-24T12:36:51.208Z,97571.97
2018-08-24T12:37:55.767Z,97562.51